Kento Tanaka

Chefscout - Nagoya Grampus
5 Mär 2028
Sonntag
Verarbeitung

Persönlichkeit

Anpassungsfähigkeit (20) Ehrgeiz (15) Kontroverse (3) Loyalität (17) Druck (3) Professionalität (13) Fairness (8) Temperament (18)

Profil

Trainerstil Demokratisch
Lizenz Kontinentale C
Entschlossenheit 13
Menschenführung 6
Motivation 11
Disziplin 12
Arbeitszufriedenheit
100%
Ermüdung
0%
Rolle Chefscout
Gehalt 71.2K p/W
Vertrag 14.03.2030

Leistung

Verhalten Gut
Trainingseffektivität
45%
Spielerentwicklung
25%
Verletzungsprävention
65%
Taktische Umsetzung
30%

Letzte Ereignisse

Nahm an einer Scouting-Besprechung teil 7T her
Empfahl ein Transferziel 7T her
Empfahl ein Transferziel 7T her
Empfahl ein Transferziel 7T her
Empfahl ein Transferziel 7T her
Nahm an einer Scouting-Besprechung teil 14T her
Spieler begutachtet 14T her
Legte dem Vorstand ein Dossier vor 14T her

Aktuell beobachtet

78
Spieler Verein Status Fähigkeit Vertrauen Beobachtet Zuletzt beobachtet Letzte Stimme
Yota Komi Kashiwa Reysol Aktiv 122 / 115 40% 1 17.02.2028 -
Sorriso Famalicao Aktiv 122 / 133 40% 1 17.02.2028 -
Lucas Boyé Alavés Aktiv 157 / 131 40% 1 14.02.2028 -
Ángel Correa Udinese Aktiv 142 / 149 40% 1 14.02.2028 -
Tiago Gordillo San Miguel Verhandlung 76 / 95 40% 1 31.01.2028 -
Daniel Banjaqui Benfica Aktiv 115 / 133 40% 1 31.01.2028 -
Miguel Figueiredo Benfica Aktiv 116 / 121 40% 2 24.01.2028 -
Axel Tape TSG Hoffenheim Aktiv 114 / 132 40% 1 24.01.2028 -
Alpha Touré FC Metz Aktiv 118 / 132 40% 1 09.01.2028 -
Noel Sernelius IFK Norrkoping Aktiv 88 / 93 40% 1 09.01.2028 -
Joel McGregor Swindon Town Aktiv 85 / 98 40% 1 09.01.2028 -
Adrián Parra Deportes Tolima Verloren 118 / 115 40% 1 09.01.2028 -
Mutsuki Kato Sanfrecce Hiroshima Aktiv 146 / 138 40% 1 09.01.2028 -
Dato Shengelia Carabobo Aktiv 94 / 95 66% 1 05.01.2028 Befürworten
Abeiku Asante Melgar Aktiv 109 / 111 66% 1 05.01.2028 Befürworten
Eiichi Katayama Urawa Reds Aktiv 93 / 87 51% 1 05.01.2028 -
Milutin Vidosavljević Partizan Aktiv 107 / 108 66% 1 22.07.2027 Befürworten
Ovidiu Dragusin Club America Verloren 119 / 123 66% 1 22.07.2027 Befürworten
Fernando Forestieri Standard Liege Aktiv 125 / 125 66% 1 22.07.2027 Befürworten
Daniel Dennis Ikorodu City Aktiv 109 / 107 40% 1 22.07.2027 -
Kelly Saravanan Salford City Aktiv 132 / 117 40% 2 22.02.2027 Mehr Infos nötig
Yousef Salech Cardiff City Aktiv 107 / 110 40% 1 22.02.2027 Mehr Infos nötig
Hidemasa Morita Hull City Aktiv 126 / 146 40% 1 22.02.2027 Mehr Infos nötig
Andy Irving Sparta Prague Aktiv 151 / 127 40% 1 22.02.2027 Mehr Infos nötig
Etiosa Ighodaro Kaizer Chiefs Aktiv 106 / 108 40% 3 20.02.2027 -
Bojan Radulović Huddersfield Town Aktiv 98 / 123 40% 1 20.02.2027 -
Ronald Swansea City Aktiv 143 / 135 40% 1 20.02.2027 -
Batxi Krasnodar Aktiv 150 / 137 40% 1 20.02.2027 -
Quentin Boisgard Piast Aktiv 137 / 108 40% 1 19.02.2027 -
Santiago Eneme-Bocari Sparta Prague Aktiv 115 / 114 40% 1 19.02.2027 -
Awer Mabil Melbourne City Aktiv 114 / 138 40% 1 18.02.2027 -
Luis Chávez Dinamo Moscow Aktiv 128 / 142 40% 1 18.02.2027 -
Filip Kubala Banik Ostrava Aktiv 105 / 128 40% 3 16.02.2027 -
Achraf Bencharki Al Ahly Aktiv 122 / 122 40% 2 14.02.2027 -
Itumeleng Phiri Free State Stars Aktiv 91 / 97 40% 2 14.02.2027 -
Ifet Đakovac Vojvodina Aktiv 135 / 107 40% 1 14.02.2027 -
Emmanuel Boateng Hapoel Tel Aviv Aktiv 117 / 113 40% 1 14.02.2027 -
Marek Havlík Slovacko Aktiv 110 / 126 40% 1 13.02.2027 -
Perry Ng Cardiff City Aktiv 103 / 106 40% 1 13.02.2027 -
Duncan Watmore Rotherham United Aktiv 118 / 119 40% 2 08.02.2027 -
Giacomo Zecca Torres Aktiv 119 / 119 40% 1 08.02.2027 -
Tomáš Chorý Slavia Prague Aktiv 158 / 144 40% 1 07.02.2027 -
Jerome Karelse Golden Arrows Aktiv 100 / 103 40% 1 07.02.2027 -
Ioannis Pittas CSKA Sofia Aktiv 133 / 118 40% 1 05.02.2027 -
Aubrey Modiba Mamelodi Sundowns Aktiv 109 / 117 40% 1 01.02.2027 -
Matyáš Kozák Teplice Aktiv 98 / 101 40% 1 31.01.2027 -
Aaron Drinan Swindon Town Aktiv 120 / 100 40% 1 31.01.2027 -
Alexis Alégué Zbrojovka Brno Aktiv 109 / 111 40% 1 31.01.2027 -
Yehor Tverdokhlib LNZ Aktiv 103 / 126 40% 1 31.01.2027 -
Iuri Medeiros Ujpest Aktiv 126 / 126 40% 2 29.01.2027 -
Mohamed Konaté Akhmat Grozny Aktiv 102 / 121 40% 1 29.01.2027 -
Bruno Almeida AEL Aktiv 137 / 124 40% 1 27.01.2027 -
Zizo Al Ahly Aktiv 144 / 117 40% 2 24.01.2027 -
Youssef Belammari Al Ahly Aktiv 144 / 117 40% 2 24.01.2027 -
Kubrat Onasci Septemvri Aktiv 111 / 105 40% 1 24.01.2027 -
James Dornelly Peterborough United Aktiv 107 / 123 40% 1 24.01.2027 -
Patrik Wålemark Lech Aktiv 125 / 140 40% 1 22.01.2027 -
Jiří Boula Banik Ostrava Aktiv 122 / 114 40% 1 22.01.2027 -
Conrad Wallem Banik Ostrava Aktiv 111 / 137 40% 1 21.01.2027 -
Petr Ševčík Zbrojovka Brno Aktiv 116 / 129 40% 1 21.01.2027 -
Fred Onyedinma Burton Albion Aktiv 105 / 113 40% 1 20.01.2027 -
Oleksandr Nazarenko Polissia Aktiv 115 / 124 40% 1 18.01.2027 -
Riccardo De Zen Renate Aktiv 84 / 104 40% 2 17.01.2027 -
Jed Wallace West Bromwich Albion Aktiv 133 / 114 40% 1 17.01.2027 -
Marcelino Moreno Lanús Aktiv 126 / 133 40% 1 16.01.2027 -
Diego García Partizan Aktiv 116 / 130 40% 1 14.01.2027 -
Xeber Alkain Karpaty Aktiv 142 / 120 40% 1 14.01.2027 -
Lukáš Sadílek Gornik Zabrze Aktiv 126 / 120 40% 1 13.01.2027 -
Sayfallah Ltaief Cracovia Aktiv 111 / 108 40% 1 13.01.2027 -
Saleh Abu Al-Shamat Zamalek Aktiv 106 / 133 40% 1 12.01.2027 -
Dejan Zukić Vojvodina Aktiv 114 / 128 40% 1 12.01.2027 -
Bongani Mothiba CSKA Moscow Aktiv 142 / 135 40% 1 11.01.2027 -
Tomáš Ladra Viktoria Plzen Aktiv 109 / 111 40% 1 10.01.2027 -
Kazunari Kita Real Sociedad Aktiv 100 / 113 40% 1 10.01.2027 -
Jeffrey Annan Hasaacas Aktiv 74 / 94 40% 1 09.01.2027 -
Maxim Radchenko Rostov Aktiv 70 / 103 40% 1 07.01.2027 -
Daniel Vernattus Metalist Aktiv 110 / 113 40% 1 07.01.2027 -
Yuma Suzuki Kashima Antlers Aktiv 144 / 126 40% 1 02.08.2026 -